createdAt,value
2022-09-03T00:02:01.078Z,100540.23
2022-09-03T00:04:05.925Z,100544.5
2022-09-03T00:06:10.538Z,100537.55
2022-09-03T00:08:15.178Z,100537.81
2022-09-03T00:10:19.787Z,100537
2022-09-03T00:12:24.369Z,100538.3
2022-09-03T00:14:29.021Z,100538.98
2022-09-03T00:16:33.633Z,100531.52
2022-09-03T00:18:38.173Z,100532.8
2022-09-03T00:20:42.662Z,100524.11
2022-09-03T00:22:47.204Z,100525.3
2022-09-03T00:24:51.831Z,100525.51
2022-09-03T00:26:56.449Z,100527.09
2022-09-03T00:29:01.062Z,100523.22
2022-09-03T00:31:05.738Z,100528.29
2022-09-03T00:33:10.414Z,100528.33
2022-09-03T00:35:14.933Z,100525.94
2022-09-03T00:37:19.794Z,100523.3
2022-09-03T00:39:24.492Z,100519.55
2022-09-03T00:41:29.059Z,100522.59
2022-09-03T00:43:33.596Z,100520.98
2022-09-03T00:45:38.138Z,100526.02
2022-09-03T00:47:43.003Z,100525.92
2022-09-03T00:49:47.692Z,100524.66
2022-09-03T00:51:52.410Z,100528.55
2022-09-03T00:53:57.035Z,100529.7
2022-09-03T00:56:01.553Z,100524.45
2022-09-03T00:58:06.170Z,100528.55
2022-09-03T01:00:14.364Z,100526.02
2022-09-03T01:02:19.228Z,100529.13
2022-09-03T01:04:24.124Z,100531.07
2022-09-03T01:06:28.648Z,100527.5
2022-09-03T01:08:33.408Z,100533.59
2022-09-03T01:10:37.992Z,100528.42
2022-09-03T01:12:42.478Z,100530.5
2022-09-03T01:14:47.030Z,100529.58
2022-09-03T01:16:51.655Z,100528.59
2022-09-03T01:18:57.336Z,100530.44
2022-09-03T01:21:02.020Z,100534.05
2022-09-03T01:23:06.639Z,100531.49
2022-09-03T01:25:11.164Z,100530.37
2022-09-03T01:27:15.679Z,100529.69
2022-09-03T01:29:20.300Z,100528.35
2022-09-03T01:31:24.992Z,100530.78
2022-09-03T01:33:29.636Z,100527.75
2022-09-03T01:35:34.264Z,100527.58
2022-09-03T01:37:38.852Z,100521.99
2022-09-03T01:39:43.549Z,100519.2
2022-09-03T01:41:48.312Z,100518.25
2022-09-03T01:43:52.845Z,100518.72
2022-09-03T01:45:57.584Z,100522.03
2022-09-03T01:48:05.134Z,100520.02
2022-09-03T01:50:09.682Z,100517.71
2022-09-03T01:52:14.301Z,100519.45
2022-09-03T01:54:22.454Z,100515.8
2022-09-03T01:56:27.021Z,100515.02
2022-09-03T01:58:31.639Z,100515.47
2022-09-03T02:00:36.165Z,100513.13
2022-09-03T02:02:40.977Z,100513.7
2022-09-03T02:04:45.708Z,100516.02
2022-09-03T02:06:51.763Z,100513.22
2022-09-03T02:08:56.270Z,100516.87
2022-09-03T02:11:00.915Z,100523.05
2022-09-03T02:13:05.513Z,100517.08
2022-09-03T02:15:10.016Z,100517.73
2022-09-03T02:17:14.562Z,100520.22
2022-09-03T02:19:19.150Z,100519.27
2022-09-03T02:21:23.805Z,100522
2022-09-03T02:23:29.656Z,100523.6
2022-09-03T02:25:34.277Z,100518.19
2022-09-03T02:27:38.892Z,100518.36
2022-09-03T02:29:43.512Z,100513.94
2022-09-03T02:31:48.133Z,100515.77
2022-09-03T02:33:52.759Z,100512.81
2022-09-03T02:35:57.512Z,100517.85
2022-09-03T02:38:02.062Z,100513.83
2022-09-03T02:40:06.772Z,100516.38
2022-09-03T02:42:11.693Z,100522.01
2022-09-03T02:44:16.246Z,100524.64
2022-09-03T02:46:21.360Z,100526.01
2022-09-03T02:48:26.261Z,100523.63
2022-09-03T02:50:30.827Z,100519.67
2022-09-03T02:52:35.370Z,100526.48
2022-09-03T02:54:40.001Z,100514.59
2022-09-03T02:56:44.701Z,100519.58
2022-09-03T02:58:49.341Z,100517.84
2022-09-03T03:00:54.046Z,100518.8
2022-09-03T03:02:58.786Z,100517.23
2022-09-03T03:05:03.402Z,100514.61
2022-09-03T03:07:08.000Z,100518.33
2022-09-03T03:09:12.543Z,100516.39
2022-09-03T03:11:17.065Z,100516.29
2022-09-03T03:13:21.685Z,100514.48
2022-09-03T03:15:26.160Z,100519.22
2022-09-03T03:17:30.717Z,100521.54
2022-09-03T03:19:35.304Z,100522.16
2022-09-03T03:21:39.861Z,100524.16
2022-09-03T03:23:44.374Z,100522.42
2022-09-03T03:25:48.890Z,100523.63
2022-09-03T03:27:53.515Z,100528.84
2022-09-03T03:29:58.033Z,100523.97
2022-09-03T03:32:02.660Z,100519.2
2022-09-03T03:34:07.170Z,100513.55
2022-09-03T03:36:11.698Z,100514.47
2022-09-03T03:38:16.351Z,100513.64
2022-09-03T03:40:20.890Z,100519.09
2022-09-03T03:42:25.553Z,100524.69
2022-09-03T03:44:30.240Z,100527.68
2022-09-03T03:46:34.796Z,100522.41
2022-09-03T03:48:39.322Z,100521.04
2022-09-03T03:50:43.935Z,100522.95
2022-09-03T03:52:48.461Z,100522.51
2022-09-03T03:54:56.667Z,100518.83
2022-09-03T03:57:01.460Z,100521.45
2022-09-03T03:59:06.113Z,100522.55
2022-09-03T04:01:10.914Z,100525.64
2022-09-03T04:03:15.541Z,100525.44
2022-09-03T04:05:24.269Z,100522.68
2022-09-03T04:07:30.330Z,100522.06
2022-09-03T04:09:37.606Z,100521.25
2022-09-03T04:11:42.124Z,100525
2022-09-03T04:13:46.758Z,100524.8
2022-09-03T04:15:51.466Z,100528.58
2022-09-03T04:17:56.090Z,100531.41
2022-09-03T04:20:00.578Z,100524.73
2022-09-03T04:22:05.128Z,100526.3
2022-09-03T04:24:09.850Z,100522.28
2022-09-03T04:26:14.582Z,100527.63
2022-09-03T04:28:19.218Z,100526.61
2022-09-03T04:30:23.918Z,100530.63
2022-09-03T04:32:29.359Z,100524.32
2022-09-03T04:34:33.953Z,100531.55
2022-09-03T04:36:38.494Z,100528.52
2022-09-03T04:38:43.015Z,100530.31
2022-09-03T04:40:47.529Z,100533.72
2022-09-03T04:42:52.152Z,100538.11
2022-09-03T04:44:56.774Z,100539.91
2022-09-03T04:47:01.390Z,100541.75
2022-09-03T04:49:06.010Z,100539.78
2022-09-03T04:51:10.634Z,100532.12
2022-09-03T04:53:15.228Z,100533.27
2022-09-03T04:55:19.878Z,100529.56
2022-09-03T04:57:24.496Z,100538.21
2022-09-03T04:59:29.104Z,100533.92
2022-09-03T05:01:33.802Z,100536.61
2022-09-03T05:03:38.459Z,100533.92
2022-09-03T05:05:43.084Z,100538.04
2022-09-03T05:07:47.706Z,100547.37
2022-09-03T05:09:52.328Z,100552.51
2022-09-03T05:11:56.834Z,100553.91
2022-09-03T05:14:01.369Z,100556.48
2022-09-03T05:16:06.068Z,100556.12
2022-09-03T05:18:10.688Z,100555.37
2022-09-03T05:20:15.210Z,100561.53
2022-09-03T05:22:19.715Z,100553.19
2022-09-03T05:24:24.373Z,100563.43
2022-09-03T05:26:28.982Z,100561.19
2022-09-03T05:28:33.606Z,100564.42
2022-09-03T05:30:38.226Z,100563.91
2022-09-03T05:32:42.848Z,100554.95
2022-09-03T05:34:47.466Z,100567.14
2022-09-03T05:36:52.089Z,100564.01
2022-09-03T05:38:57.862Z,100562.5
2022-09-03T05:41:03.378Z,100564.21
2022-09-03T05:43:09.663Z,100559.1
2022-09-03T05:45:14.224Z,100556.75
2022-09-03T05:47:18.860Z,100554.03
2022-09-03T05:49:23.474Z,100555.08
2022-09-03T05:51:28.019Z,100554.54
2022-09-03T05:53:32.617Z,100556.03
2022-09-03T05:55:37.157Z,100558.86
2022-09-03T05:57:42.394Z,100565.3
2022-09-03T05:59:46.884Z,100566.18
2022-09-03T06:01:58.126Z,100563.52
2022-09-03T06:04:04.559Z,100565.91
2022-09-03T06:06:09.172Z,100564.03
2022-09-03T06:08:13.866Z,100565.09
2022-09-03T06:10:25.074Z,100562.7
2022-09-03T06:12:38.089Z,100559.67
2022-09-03T06:14:42.711Z,100557.63
2022-09-03T06:16:47.502Z,100553.11
2022-09-03T06:18:53.532Z,100552.87
2022-09-03T06:20:58.110Z,100549.6
2022-09-03T06:23:02.703Z,100556.62
2022-09-03T06:25:07.249Z,100559.72
2022-09-03T06:27:11.860Z,100564.31
2022-09-03T06:29:18.258Z,100563.77
2022-09-03T06:31:23.094Z,100569.21
2022-09-03T06:33:27.891Z,100572.75
2022-09-03T06:35:43.017Z,100579.66
2022-09-03T06:37:48.084Z,100580.96
2022-09-03T06:39:52.848Z,100580.8
2022-09-03T06:41:57.643Z,100581.75
2022-09-03T06:44:02.219Z,100583.55
2022-09-03T06:46:07.436Z,100589.81
2022-09-03T06:48:12.243Z,100588.52
2022-09-03T06:50:16.865Z,100584.67
2022-09-03T06:52:21.388Z,100583.45
2022-09-03T06:54:25.856Z,100584.37
2022-09-03T06:56:30.418Z,100583.34
2022-09-03T06:58:39.660Z,100580.42
2022-09-03T07:00:45.825Z,100580.89
2022-09-03T07:02:50.733Z,100584.23
2022-09-03T07:04:56.314Z,100586.98
2022-09-03T07:07:00.996Z,100585.84
2022-09-03T07:09:05.724Z,100581.85
2022-09-03T07:11:10.320Z,100583.55
2022-09-03T07:13:14.948Z,100585.56
2022-09-03T07:15:19.686Z,100579.54
2022-09-03T07:17:24.284Z,100582.02
2022-09-03T07:19:28.826Z,100580.16
2022-09-03T07:21:33.346Z,100577.56
2022-09-03T07:23:37.965Z,100580.53
2022-09-03T07:25:42.560Z,100579.44
2022-09-03T07:27:47.104Z,100581.93
2022-09-03T07:29:51.726Z,100582.3
2022-09-03T07:31:56.500Z,100580.26
2022-09-03T07:34:01.414Z,100577.16
2022-09-03T07:36:07.073Z,100581.97
2022-09-03T07:38:11.646Z,100577.92
2022-09-03T07:40:16.266Z,100579.11
2022-09-03T07:42:20.781Z,100580.2
2022-09-03T07:44:25.403Z,100581.52
2022-09-03T07:46:30.112Z,100579.62
2022-09-03T07:48:38.536Z,100581.73
2022-09-03T07:50:43.158Z,100583.44
2022-09-03T07:52:47.760Z,100582.17
2022-09-03T07:54:52.296Z,100579.86
2022-09-03T07:56:58.658Z,100580.06
2022-09-03T07:59:03.138Z,100584.15
2022-09-03T08:01:07.785Z,100584.15
2022-09-03T08:03:16.213Z,100582.52
2022-09-03T08:05:20.828Z,100581.83
2022-09-03T08:07:28.328Z,100591.61
2022-09-03T08:09:33.012Z,100584.15
2022-09-03T08:11:37.566Z,100586.88
2022-09-03T08:13:42.166Z,100592.05
2022-09-03T08:15:46.944Z,100587.22
2022-09-03T08:17:51.831Z,100583.39
2022-09-03T08:19:56.461Z,100583.36
2022-09-03T08:22:01.074Z,100581.63
2022-09-03T08:24:05.749Z,100579.14
2022-09-03T08:26:10.396Z,100580.23
2022-09-03T08:28:14.940Z,100575.39
2022-09-03T08:30:19.605Z,100571.17
2022-09-03T08:32:24.280Z,100573.2
2022-09-03T08:34:29.004Z,100571.47
2022-09-03T08:36:33.624Z,100570.06
2022-09-03T08:38:38.246Z,100572.08
2022-09-03T08:40:42.866Z,100570.3
2022-09-03T08:42:47.360Z,100572.14
2022-09-03T08:44:52.010Z,100567.98
2022-09-03T08:46:56.815Z,100569.52
2022-09-03T08:49:01.551Z,100567.84
2022-09-03T08:51:07.099Z,100562.28
2022-09-03T08:53:14.689Z,100559.14
2022-09-03T08:55:19.134Z,100559.13
2022-09-03T08:57:23.528Z,100557.28
2022-09-03T08:59:33.859Z,100559.75
2022-09-03T09:01:38.664Z,100560.33
2022-09-03T09:03:43.535Z,100561.27
2022-09-03T09:05:48.154Z,100564.91
2022-09-03T09:07:52.772Z,100564.42
2022-09-03T09:09:57.392Z,100560.81
2022-09-03T09:12:02.016Z,100560.43
2022-09-03T09:14:06.533Z,100562.74
2022-09-03T09:16:11.486Z,100562.08
2022-09-03T09:18:17.071Z,100557.41
2022-09-03T09:20:21.831Z,100557.27
2022-09-03T09:22:26.421Z,100553.39
2022-09-03T09:24:31.074Z,100549.46
2022-09-03T09:26:35.686Z,100551.48
2022-09-03T09:28:40.266Z,100548
2022-09-03T09:30:45.615Z,100543.22
2022-09-03T09:32:50.275Z,100543.17
2022-09-03T09:34:54.771Z,100537.23
2022-09-03T09:36:59.415Z,100527.3
2022-09-03T09:39:04.021Z,100537.98
2022-09-03T09:41:08.556Z,100532.27
2022-09-03T09:43:13.150Z,100530.3
2022-09-03T09:45:17.703Z,100533.08
2022-09-03T09:47:22.518Z,100526.36
2022-09-03T09:49:27.251Z,100530.7
2022-09-03T09:51:31.875Z,100526.86
2022-09-03T09:53:36.573Z,100520.25
2022-09-03T09:55:41.109Z,100525.06
2022-09-03T09:57:45.732Z,100527.89
2022-09-03T09:59:50.454Z,100521.41
2022-09-03T10:01:55.298Z,100519.36
2022-09-03T10:04:00.126Z,100523.02
2022-09-03T10:06:04.620Z,100527.3
2022-09-03T10:08:09.248Z,100522.73
2022-09-03T10:10:13.880Z,100513.09
2022-09-03T10:12:18.658Z,100503.72
2022-09-03T10:14:23.339Z,100507.61
2022-09-03T10:16:28.042Z,100503.02
2022-09-03T10:18:33.099Z,100501.39
2022-09-03T10:20:37.893Z,100494.83
2022-09-03T10:22:57.730Z,100494.38
2022-09-03T10:25:02.490Z,100499.84
2022-09-03T10:27:07.112Z,100497.75
2022-09-03T10:29:11.734Z,100489.27
2022-09-03T10:31:16.629Z,100494.71
2022-09-03T10:33:21.372Z,100501.51
2022-09-03T10:35:26.008Z,100495.88
2022-09-03T10:37:30.733Z,100503.35
2022-09-03T10:39:45.159Z,100491.48
2022-09-03T10:41:56.051Z,100496.77
2022-09-03T10:44:00.754Z,100495.83
2022-09-03T10:46:05.407Z,100491.69
2022-09-03T10:48:10.227Z,100489.83
2022-09-03T10:50:14.986Z,100486.95
2022-09-03T10:52:19.542Z,100487.17
2022-09-03T10:54:24.292Z,100488.13
2022-09-03T10:56:28.915Z,100484.2
2022-09-03T10:58:35.789Z,100477.55
2022-09-03T11:00:40.614Z,100477.3
2022-09-03T11:02:45.388Z,100472.14
2022-09-03T11:04:50.252Z,100477.8
2022-09-03T11:06:54.989Z,100475.98
2022-09-03T11:09:06.423Z,100483.28
2022-09-03T11:11:11.196Z,100489.81
2022-09-03T11:13:15.924Z,100471.96
2022-09-03T11:15:21.404Z,100467.08
2022-09-03T11:17:33.247Z,100460.11
2022-09-03T11:19:37.981Z,100458.02
2022-09-03T11:21:42.703Z,100467.73
2022-09-03T11:23:47.471Z,100447.73
2022-09-03T11:25:58.696Z,100447.7
2022-09-03T11:28:03.419Z,100459.52
2022-09-03T11:30:07.958Z,100451.7
2022-09-03T11:32:12.763Z,100449.8
2022-09-03T11:34:33.161Z,100450.6
2022-09-03T11:36:37.880Z,100448.75
2022-09-03T11:38:42.605Z,100450.16
2022-09-03T11:40:48.047Z,100438.5
2022-09-03T11:42:52.672Z,100442.13
2022-09-03T11:44:57.314Z,100432.73
2022-09-03T11:47:01.978Z,100441.8
2022-09-03T11:49:06.632Z,100445.77
2022-09-03T11:51:11.357Z,100437.97
2022-09-03T11:53:16.346Z,100449.86
2022-09-03T11:55:21.275Z,100444.36
2022-09-03T11:57:26.045Z,100442.42
2022-09-03T11:59:30.659Z,100434.12
2022-09-03T12:01:35.388Z,100446.28
2022-09-03T12:03:41.705Z,100443.48
2022-09-03T12:05:47.904Z,100435.84
2022-09-03T12:07:52.629Z,100438.98
2022-09-03T12:09:57.251Z,100438
2022-09-03T12:12:01.778Z,100442.5
2022-09-03T12:14:14.502Z,100432.99
2022-09-03T12:16:19.257Z,100430.77
2022-09-03T12:18:24.132Z,100432.89
2022-09-03T12:20:28.656Z,100439.95
2022-09-03T12:22:33.102Z,100431.31
2022-09-03T12:24:39.495Z,100431.65
2022-09-03T12:26:44.041Z,100434.09
2022-09-03T12:28:48.471Z,100433.8
2022-09-03T12:30:54.577Z,100421.59
2022-09-03T12:32:59.113Z,100415.16
2022-09-03T12:35:03.662Z,100417.39
2022-09-03T12:37:08.389Z,100417.66
2022-09-03T12:39:14.488Z,100417.26
2022-09-03T12:41:27.161Z,100422.95
2022-09-03T12:43:50.023Z,100424
2022-09-03T12:46:11.878Z,100411.89
2022-09-03T12:48:16.626Z,100420.57
2022-09-03T12:50:21.432Z,100425.22
2022-09-03T12:52:25.998Z,100422.13
2022-09-03T12:54:30.616Z,100419.7
2022-09-03T12:56:35.234Z,100414.78
2022-09-03T12:58:39.858Z,100419.48
2022-09-03T13:00:44.381Z,100413.48
2022-09-03T13:02:49.104Z,100413.21
2022-09-03T13:04:53.632Z,100412.73
2022-09-03T13:06:58.252Z,100408.7
2022-09-03T13:09:02.871Z,100410.69
2022-09-03T13:11:07.473Z,100407.33
2022-09-03T13:13:12.210Z,100413.88
2022-09-03T13:15:16.725Z,100413.32
2022-09-03T13:17:21.352Z,100417.7
2022-09-03T13:19:25.940Z,100409.53
2022-09-03T13:21:30.705Z,100410.22
2022-09-03T13:23:35.332Z,100410.47
2022-09-03T13:25:40.495Z,100413.53
2022-09-03T13:27:45.280Z,100408.6
2022-09-03T13:29:53.696Z,100410.26
2022-09-03T13:32:00.766Z,100414.41
2022-09-03T13:34:09.790Z,100418.03
2022-09-03T13:36:14.519Z,100417.8
2022-09-03T13:38:19.251Z,100408.69
2022-09-03T13:40:23.964Z,100410.8
2022-09-03T13:42:28.845Z,100412.72
2022-09-03T13:44:33.381Z,100406.61
2022-09-03T13:46:37.929Z,100410.43
2022-09-03T13:48:44.253Z,100412.36
2022-09-03T13:50:48.807Z,100409.56
2022-09-03T13:52:53.539Z,100411.79
2022-09-03T13:54:58.158Z,100415.91
2022-09-03T13:57:02.783Z,100408.36
2022-09-03T13:59:08.737Z,100405.08
2022-09-03T14:01:13.490Z,100410.04
2022-09-03T14:03:18.593Z,100409.05
2022-09-03T14:05:23.528Z,100410.2
2022-09-03T14:07:28.124Z,100407.01
2022-09-03T14:09:32.660Z,100407.8
2022-09-03T14:11:37.403Z,100406.41
2022-09-03T14:13:42.141Z,100403.72
2022-09-03T14:15:46.923Z,100400.73
2022-09-03T14:17:51.666Z,100403.52
2022-09-03T14:19:56.255Z,100403.67
2022-09-03T14:22:00.797Z,100408.53
2022-09-03T14:24:05.631Z,100406.79
2022-09-03T14:26:10.448Z,100411.1
2022-09-03T14:28:14.999Z,100404
2022-09-03T14:30:19.795Z,100402.25
2022-09-03T14:32:24.425Z,100405.25
2022-09-03T14:34:32.258Z,100399.42
2022-09-03T14:36:36.840Z,100402.84
2022-09-03T14:38:41.388Z,100399.83
2022-09-03T14:40:45.977Z,100403.38
2022-09-03T14:42:50.495Z,100399.33
2022-09-03T14:44:55.129Z,100401.95
2022-09-03T14:46:59.743Z,100401.47
2022-09-03T14:49:04.260Z,100407.14
2022-09-03T14:51:15.386Z,100398.61
2022-09-03T14:53:23.782Z,100402.46
2022-09-03T14:55:28.672Z,100396.75
2022-09-03T14:57:33.297Z,100391.16
2022-09-03T14:59:38.025Z,100387.79
2022-09-03T15:01:42.764Z,100390.63
2022-09-03T15:03:47.364Z,100388.13
2022-09-03T15:05:52.088Z,100386.01
2022-09-03T15:07:56.699Z,100394.84
2022-09-03T15:10:01.383Z,100387.05
2022-09-03T15:12:06.464Z,100393.09
2022-09-03T15:14:11.183Z,100387.91
2022-09-03T15:16:16.080Z,100390.22
2022-09-03T15:18:20.931Z,100393.64
2022-09-03T15:20:25.460Z,100399.08
2022-09-03T15:22:30.183Z,100390.81
2022-09-03T15:24:34.702Z,100392.3
2022-09-03T15:26:39.427Z,100394.37
2022-09-03T15:28:44.112Z,100400.63
2022-09-03T15:30:48.767Z,100393.2
2022-09-03T15:32:53.386Z,100387.65
2022-09-03T15:34:58.025Z,100391.52
2022-09-03T15:37:08.158Z,100384.89
2022-09-03T15:39:14.601Z,100388.77
2022-09-03T15:41:19.114Z,100390.87
2022-09-03T15:43:23.826Z,100390.8
2022-09-03T15:45:28.692Z,100404.6
2022-09-03T15:47:52.397Z,100404.88
2022-09-03T15:49:56.975Z,100397.55
2022-09-03T15:52:02.468Z,100396.56
2022-09-03T15:54:07.136Z,100410.55
2022-09-03T15:56:15.044Z,100396.73
2022-09-03T15:58:21.911Z,100399.67
2022-09-03T16:00:26.519Z,100402.02
2022-09-03T16:02:31.125Z,100408.89
2022-09-03T16:04:35.756Z,100406.58
2022-09-03T16:06:40.271Z,100403.16
2022-09-03T16:08:44.784Z,100400.48
2022-09-03T16:10:49.325Z,100406.55
2022-09-03T16:12:53.924Z,100406.9
2022-09-03T16:14:58.470Z,100408.97
2022-09-03T16:17:03.088Z,100411.45
2022-09-03T16:19:07.738Z,100407.06
2022-09-03T16:21:12.423Z,100405.59
2022-09-03T16:23:17.037Z,100401.88
2022-09-03T16:25:21.666Z,100406.48
2022-09-03T16:27:26.285Z,100400.95
2022-09-03T16:29:30.924Z,100405.42
2022-09-03T16:31:35.649Z,100408.45
2022-09-03T16:33:40.467Z,100408.58
2022-09-03T16:35:45.176Z,100413.24
2022-09-03T16:37:49.793Z,100410.23
2022-09-03T16:39:54.470Z,100411.94
2022-09-03T16:41:59.246Z,100409.29
2022-09-03T16:44:03.871Z,100403.41
2022-09-03T16:46:08.567Z,100407.53
2022-09-03T16:48:13.307Z,100407.77
2022-09-03T16:50:17.787Z,100410.83
2022-09-03T16:52:39.407Z,100416.66
2022-09-03T16:54:44.720Z,100412.69
2022-09-03T16:57:00.984Z,100409.72
2022-09-03T16:59:05.596Z,100414.28
2022-09-03T17:01:10.590Z,100413.13
2022-09-03T17:03:15.566Z,100414.77
2022-09-03T17:05:20.944Z,100411.88
2022-09-03T17:07:28.482Z,100416.33
2022-09-03T17:09:33.002Z,100412.17
2022-09-03T17:11:37.728Z,100409.59
2022-09-03T17:13:42.659Z,100410.23
2022-09-03T17:15:47.389Z,100406.48
2022-09-03T17:17:51.996Z,100407.44
2022-09-03T17:19:56.614Z,100408.13
2022-09-03T17:22:01.318Z,100409.02
2022-09-03T17:24:05.858Z,100405.11
2022-09-03T17:26:12.885Z,100407.7
2022-09-03T17:28:24.236Z,100409.94
2022-09-03T17:30:30.230Z,100406.17
2022-09-03T17:32:34.795Z,100405.06
2022-09-03T17:34:39.419Z,100405.58
2022-09-03T17:36:44.130Z,100413.88
2022-09-03T17:38:48.755Z,100413.84
2022-09-03T17:40:53.346Z,100415.63
2022-09-03T17:42:57.896Z,100414.14
2022-09-03T17:45:02.518Z,100415.57
2022-09-03T17:47:07.136Z,100416.45
2022-09-03T17:49:11.730Z,100418.06
2022-09-03T17:51:17.212Z,100417.35
2022-09-03T17:53:21.829Z,100416.3
2022-09-03T17:55:26.738Z,100422.38
2022-09-03T17:57:31.860Z,100416.64
2022-09-03T17:59:36.511Z,100422.86
2022-09-03T18:01:41.169Z,100419.87
2022-09-03T18:03:46.002Z,100418.83
2022-09-03T18:05:50.674Z,100420.41
2022-09-03T18:07:55.401Z,100419.66
2022-09-03T18:10:00.029Z,100418.73
2022-09-03T18:12:04.529Z,100420.93
2022-09-03T18:14:09.079Z,100420.23
2022-09-03T18:16:13.894Z,100416.33
2022-09-03T18:18:18.622Z,100416.41
2022-09-03T18:20:23.233Z,100419.52
2022-09-03T18:22:28.758Z,100418.5
2022-09-03T18:24:33.286Z,100426.39
2022-09-03T18:26:37.919Z,100430.6
2022-09-03T18:28:42.498Z,100438.67
2022-09-03T18:30:48.183Z,100447.79
2022-09-03T18:32:52.800Z,100446.39
2022-09-03T18:34:57.533Z,100449.99
2022-09-03T18:37:02.244Z,100456.95
2022-09-03T18:39:06.984Z,100459.11
2022-09-03T18:41:11.812Z,100453.84
2022-09-03T18:43:16.569Z,100459.16
2022-09-03T18:45:23.507Z,100463.23
2022-09-03T18:48:08.515Z,100467.27
2022-09-03T18:50:23.336Z,100468.38
2022-09-03T18:52:27.957Z,100468.6
2022-09-03T18:55:07.700Z,100465.13
2022-09-03T18:57:12.945Z,100464.47
2022-09-03T18:59:17.662Z,100465.03
2022-09-03T19:01:22.769Z,100466.22
2022-09-03T19:03:27.488Z,100468.47
2022-09-03T19:05:32.249Z,100470.52
2022-09-03T19:07:39.946Z,100467.88
2022-09-03T19:09:44.645Z,100462.59
2022-09-03T19:11:55.610Z,100464.34
2022-09-03T19:14:00.080Z,100462.29
2022-09-03T19:16:08.148Z,100463.67
2022-09-03T19:18:12.875Z,100461.44
2022-09-03T19:20:17.307Z,100463.95
2022-09-03T19:22:25.085Z,100465.04
2022-09-03T19:24:32.084Z,100467.31
2022-09-03T19:26:38.325Z,100467.83
2022-09-03T19:28:42.735Z,100466.17
2022-09-03T19:30:51.958Z,100468.88
2022-09-03T19:32:56.633Z,100468.41
2022-09-03T19:35:01.093Z,100474.68
2022-09-03T19:37:05.527Z,100475.02
2022-09-03T19:39:13.265Z,100479.89
2022-09-03T19:41:18.042Z,100479.64
2022-09-03T19:43:22.827Z,100477.5
2022-09-03T19:45:27.693Z,100477.51
2022-09-03T19:47:32.315Z,100475.91
2022-09-03T19:49:38.064Z,100480.8
2022-09-03T19:51:42.678Z,100477.13
2022-09-03T19:53:47.515Z,100479.02
2022-09-03T19:55:52.119Z,100482.8
2022-09-03T19:57:57.209Z,100479.55
2022-09-03T20:00:01.988Z,100477.3
2022-09-03T20:02:06.705Z,100479.88
2022-09-03T20:04:11.328Z,100483.91
2022-09-03T20:06:16.054Z,100483.28
2022-09-03T20:08:20.878Z,100487.87
2022-09-03T20:10:25.736Z,100487.55
2022-09-03T20:12:30.429Z,100482.88
2022-09-03T20:14:35.154Z,100487.18
2022-09-03T20:16:39.871Z,100488.55
2022-09-03T20:18:44.497Z,100495.48
2022-09-03T20:20:49.118Z,100498.94
2022-09-03T20:22:53.732Z,100505.48
2022-09-03T20:24:58.361Z,100501.98
2022-09-03T20:27:03.080Z,100502.33
2022-09-03T20:29:07.701Z,100504.28
2022-09-03T20:31:12.401Z,100502.45
2022-09-03T20:33:25.717Z,100498.85
2022-09-03T20:35:30.473Z,100501.48
2022-09-03T20:37:36.735Z,100500.7
2022-09-03T20:39:41.629Z,100502.85
2022-09-03T20:41:46.392Z,100503.34
2022-09-03T20:43:51.023Z,100504.05
2022-09-03T20:45:55.872Z,100506.75
2022-09-03T20:48:00.572Z,100506.9
2022-09-03T20:50:05.400Z,100505.2
2022-09-03T20:52:10.214Z,100508.11
2022-09-03T20:54:14.736Z,100511.36
2022-09-03T20:56:19.349Z,100512.48
2022-09-03T20:58:24.113Z,100514.84
2022-09-03T21:00:28.913Z,100512.81
2022-09-03T21:02:33.815Z,100516.57
2022-09-03T21:04:38.568Z,100523.63
2022-09-03T21:06:43.284Z,100518.5
2022-09-03T21:08:48.007Z,100520.78
2022-09-03T21:10:53.841Z,100518.81
2022-09-03T21:12:58.504Z,100520.55
2022-09-03T21:15:03.030Z,100519.2
2022-09-03T21:17:07.613Z,100521.07
2022-09-03T21:19:16.745Z,100523.42
2022-09-03T21:21:21.369Z,100525.61
2022-09-03T21:23:26.123Z,100530.69
2022-09-03T21:25:30.916Z,100530.92
2022-09-03T21:27:35.536Z,100524.8
2022-09-03T21:29:42.511Z,100525.03
2022-09-03T21:31:47.646Z,100522.62
2022-09-03T21:33:52.164Z,100525.24
2022-09-03T21:35:56.887Z,100520.2
2022-09-03T21:38:01.611Z,100523.5
2022-09-03T21:40:09.007Z,100528.91
2022-09-03T21:42:13.927Z,100530.17
2022-09-03T21:44:19.875Z,100533.53
2022-09-03T21:46:24.785Z,100533.38
2022-09-03T21:48:29.532Z,100530.95
2022-09-03T21:50:35.052Z,100531.85
2022-09-03T21:52:40.654Z,100535.38
2022-09-03T21:54:46.868Z,100532.77
2022-09-03T21:56:51.493Z,100537.19
2022-09-03T21:58:56.204Z,100539.73
2022-09-03T22:01:01.067Z,100543.84
2022-09-03T22:03:05.768Z,100542.09
2022-09-03T22:05:13.149Z,100544.06
2022-09-03T22:07:17.742Z,100541.13
2022-09-03T22:09:22.599Z,100543.27
2022-09-03T22:11:27.221Z,100545.52
2022-09-03T22:13:31.843Z,100543.41
2022-09-03T22:15:36.459Z,100545.86
2022-09-03T22:17:41.114Z,100545.3
2022-09-03T22:19:45.700Z,100544.76
2022-09-03T22:21:50.238Z,100541.48
2022-09-03T22:23:55.046Z,100545.64
2022-09-03T22:25:59.560Z,100541.89
2022-09-03T22:28:04.284Z,100541.59
2022-09-03T22:30:08.909Z,100539.2
2022-09-03T22:32:13.426Z,100535.27
2022-09-03T22:34:18.052Z,100533.73
2022-09-03T22:36:22.565Z,100533.53
2022-09-03T22:38:27.698Z,100533.32
2022-09-03T22:40:32.306Z,100531.95
2022-09-03T22:42:36.937Z,100534.55
2022-09-03T22:44:41.572Z,100535.09
2022-09-03T22:46:46.297Z,100531.31
2022-09-03T22:48:50.927Z,100529.41
2022-09-03T22:50:55.526Z,100530.92
2022-09-03T22:53:00.147Z,100525.47
2022-09-03T22:55:04.768Z,100524.34
2022-09-03T22:57:09.392Z,100526.39
2022-09-03T22:59:14.115Z,100526.11
2022-09-03T23:01:18.955Z,100523.48
2022-09-03T23:03:23.801Z,100526.18
2022-09-03T23:05:28.573Z,100524.2
2022-09-03T23:07:33.404Z,100521.58
2022-09-03T23:09:37.935Z,100527.45
2022-09-03T23:11:42.454Z,100528.06
2022-09-03T23:13:47.088Z,100526.29
2022-09-03T23:15:51.691Z,100526.53
2022-09-03T23:17:56.424Z,100524.93
2022-09-03T23:20:00.937Z,100522.14
2022-09-03T23:22:05.216Z,100520.17
2022-09-03T23:24:09.768Z,100516.19
2022-09-03T23:26:14.634Z,100518.73
2022-09-03T23:28:19.232Z,100521.13
2022-09-03T23:30:23.958Z,100526.78
2022-09-03T23:32:34.090Z,100523.68
2022-09-03T23:34:38.710Z,100528.86
2022-09-03T23:37:34.014Z,100528.19
2022-09-03T23:39:39.294Z,100522.63
2022-09-03T23:41:43.983Z,100528.97
2022-09-03T23:43:48.616Z,100527.98
2022-09-03T23:45:53.468Z,100529.59
2022-09-03T23:47:58.148Z,100533.68
2022-09-03T23:50:02.747Z,100532.05
2022-09-03T23:52:07.257Z,100531
2022-09-03T23:54:11.788Z,100532.43
2022-09-03T23:56:16.323Z,100531.65
2022-09-03T23:58:21.050Z,100537.51
